createdAt,value
2023-03-21T00:01:27.807Z,14.90
2023-03-21T00:03:56.256Z,14.00
2023-03-21T00:06:24.627Z,13.70
2023-03-21T00:08:53.641Z,13.43
2023-03-21T00:11:22.399Z,13.20
2023-03-21T00:13:51.036Z,13.53
2023-03-21T00:16:25.290Z,12.80
2023-03-21T00:19:03.263Z,13.07
2023-03-21T00:24:21.010Z,13.03
2023-03-21T00:26:49.833Z,13.40
2023-03-21T00:29:19.126Z,11.97
2023-03-21T00:31:48.373Z,13.93
2023-03-21T00:34:22.778Z,12.23
2023-03-21T00:37:01.791Z,13.27
2023-03-21T00:39:30.325Z,12.50
2023-03-21T00:41:58.705Z,12.80
2023-03-21T00:44:27.131Z,13.03
2023-03-21T00:47:06.528Z,12.73
2023-03-21T00:49:38.679Z,12.43
2023-03-21T00:52:17.096Z,12.93
2023-03-21T00:54:53.185Z,13.00
2023-03-21T00:57:29.330Z,12.37
2023-03-21T01:00:00.999Z,12.87
2023-03-21T01:02:29.395Z,12.37
2023-03-21T01:05:00.355Z,12.00
2023-03-21T01:07:28.770Z,12.40
2023-03-21T01:09:57.226Z,11.90
2023-03-21T01:12:27.707Z,12.40
2023-03-21T01:14:57.779Z,12.00
2023-03-21T01:17:26.122Z,12.30
2023-03-21T01:19:54.685Z,12.10
2023-03-21T01:22:24.516Z,12.20
2023-03-21T01:24:58.507Z,11.43
2023-03-21T01:27:31.614Z,11.53
2023-03-21T01:30:00.207Z,11.90
2023-03-21T01:32:28.591Z,12.20
2023-03-21T01:34:57.067Z,11.70
2023-03-21T01:37:27.435Z,11.90
2023-03-21T01:39:55.924Z,11.70
2023-03-21T01:42:24.623Z,12.47
2023-03-21T01:44:58.905Z,12.47
2023-03-21T01:47:36.178Z,12.33
2023-03-21T01:50:22.421Z,12.20
2023-03-21T01:53:15.164Z,12.60
2023-03-21T01:55:44.230Z,11.60
2023-03-21T01:58:32.090Z,11.73
2023-03-21T02:01:02.957Z,11.40
2023-03-21T02:03:51.720Z,11.50
2023-03-21T02:06:50.410Z,10.87
2023-03-21T02:09:34.571Z,10.40
2023-03-21T02:12:05.192Z,11.10
2023-03-21T02:14:37.820Z,11.23
2023-03-21T02:17:24.843Z,10.93
2023-03-21T02:20:34.466Z,11.63
2023-03-21T02:23:40.141Z,11.70
2023-03-21T02:26:46.486Z,11.53
2023-03-21T02:29:46.882Z,11.47
2023-03-21T02:32:36.872Z,11.37
2023-03-21T02:35:52.409Z,11.30
2023-03-21T02:38:30.420Z,11.50
2023-03-21T02:41:13.216Z,11.23
2023-03-21T02:43:53.532Z,11.50
2023-03-21T02:46:33.436Z,11.60
2023-03-21T02:49:14.262Z,11.20
2023-03-21T02:51:44.689Z,11.40
2023-03-21T02:54:38.217Z,11.33
2023-03-21T02:57:08.835Z,10.83
2023-03-21T02:59:51.598Z,11.20
2023-03-21T03:02:29.739Z,10.90
2023-03-21T03:04:58.907Z,10.20
2023-03-21T03:07:38.801Z,10.67
2023-03-21T03:10:27.763Z,10.00
2023-03-21T03:13:09.227Z,10.27
2023-03-21T03:15:48.218Z,10.30
2023-03-21T03:18:26.142Z,10.40
2023-03-21T03:21:04.847Z,10.70
2023-03-21T03:23:44.169Z,10.80
2023-03-21T03:26:18.569Z,10.30
2023-03-21T03:28:52.525Z,10.77
2023-03-21T03:31:26.362Z,10.20
2023-03-21T03:34:03.241Z,10.50
2023-03-21T03:36:39.113Z,9.93
2023-03-21T03:39:15.547Z,10.43
2023-03-21T03:42:18.299Z,9.87
2023-03-21T03:44:53.075Z,10.63
2023-03-21T03:47:32.862Z,10.10
2023-03-21T03:50:10.446Z,9.70
2023-03-21T03:52:55.349Z,9.90
2023-03-21T03:55:34.635Z,10.70
2023-03-21T03:58:22.181Z,10.90
2023-03-21T04:00:53.351Z,10.53
2023-03-21T04:03:22.313Z,10.33
2023-03-21T04:05:51.446Z,11.37
2023-03-21T04:08:19.974Z,11.33
2023-03-21T04:10:53.696Z,10.80
2023-03-21T04:13:26.049Z,11.20
2023-03-21T04:16:13.096Z,10.43
2023-03-21T04:18:43.310Z,11.40
2023-03-21T04:21:14.068Z,10.27
2023-03-21T04:23:43.031Z,9.83
2023-03-21T04:26:11.592Z,9.40
2023-03-21T04:28:53.195Z,9.97
2023-03-21T04:31:41.972Z,10.53
2023-03-21T04:34:13.773Z,10.77
2023-03-21T04:36:47.595Z,10.90
2023-03-21T04:39:17.035Z,11.50
2023-03-21T04:41:49.850Z,11.30
2023-03-21T04:44:21.020Z,11.77
2023-03-21T04:46:50.336Z,10.60
2023-03-21T04:49:19.694Z,10.70
2023-03-21T04:51:48.175Z,10.23
2023-03-21T04:54:21.127Z,10.47
2023-03-21T04:56:49.847Z,11.10
2023-03-21T04:59:21.510Z,10.17
2023-03-21T05:01:50.112Z,10.23
2023-03-21T05:04:19.049Z,10.60
2023-03-21T05:06:47.820Z,10.93
2023-03-21T05:09:18.200Z,10.40
2023-03-21T05:11:46.763Z,10.70
2023-03-21T05:14:20.647Z,10.63
2023-03-21T05:16:53.701Z,11.27
2023-03-21T05:19:25.993Z,11.53
2023-03-21T05:21:55.001Z,11.47
2023-03-21T05:24:27.680Z,11.00
2023-03-21T05:27:02.067Z,11.77
2023-03-21T05:29:34.921Z,12.27
2023-03-21T05:32:06.701Z,12.03
2023-03-21T05:34:35.219Z,11.40
2023-03-21T05:37:03.639Z,11.23
2023-03-21T05:39:44.272Z,10.57
2023-03-21T05:42:19.663Z,11.57
2023-03-21T05:44:49.875Z,10.30
2023-03-21T05:47:23.482Z,10.80
2023-03-21T05:49:53.981Z,11.10
2023-03-21T05:52:23.899Z,10.93
2023-03-21T05:54:52.538Z,10.50
2023-03-21T05:57:24.335Z,11.20
2023-03-21T06:00:02.665Z,10.00
2023-03-21T06:02:32.520Z,10.03
2023-03-21T06:05:06.360Z,10.20
2023-03-21T06:07:37.162Z,9.10
2023-03-21T06:10:06.768Z,9.73
2023-03-21T06:12:35.866Z,9.40
2023-03-21T06:15:18.736Z,10.23
2023-03-21T06:17:56.475Z,9.57
2023-03-21T06:20:25.165Z,10.67
2023-03-21T06:22:57.578Z,10.33
2023-03-21T06:25:26.024Z,10.47
2023-03-21T06:27:54.404Z,9.20
2023-03-21T06:30:24.357Z,11.30
2023-03-21T06:33:06.213Z,9.97
2023-03-21T06:35:35.294Z,9.50
2023-03-21T06:38:03.993Z,10.43
2023-03-21T06:40:34.793Z,9.57
2023-03-21T06:43:03.215Z,10.10
2023-03-21T06:45:33.287Z,9.33
2023-03-21T06:48:01.720Z,9.50
2023-03-21T06:50:44.528Z,9.10
2023-03-21T06:53:12.932Z,9.53
2023-03-21T06:56:01.567Z,9.10
2023-03-21T06:58:30.424Z,9.40
2023-03-21T07:01:03.285Z,9.30
2023-03-21T07:03:35.140Z,10.00
2023-03-21T07:06:08.760Z,9.93
2023-03-21T07:08:37.208Z,12.10
2023-03-21T07:11:06.282Z,10.43
2023-03-21T07:13:34.946Z,10.17
2023-03-21T07:16:07.888Z,10.07
2023-03-21T07:18:37.093Z,10.13
2023-03-21T07:21:06.021Z,10.37
2023-03-21T07:23:35.037Z,10.73
2023-03-21T07:26:04.296Z,10.07
2023-03-21T07:28:33.774Z,10.50
2023-03-21T07:31:05.316Z,10.30
2023-03-21T07:33:35.796Z,9.80
2023-03-21T07:36:04.737Z,10.17
2023-03-21T07:38:33.115Z,9.30
2023-03-21T07:41:01.916Z,8.60
2023-03-21T07:43:34.755Z,8.40
2023-03-21T07:46:04.959Z,9.50
2023-03-21T07:48:34.752Z,10.00
2023-03-21T07:51:03.243Z,9.77
2023-03-21T07:53:31.536Z,9.10
2023-03-21T07:55:59.927Z,9.43
2023-03-21T07:58:28.677Z,9.20
2023-03-21T08:00:57.351Z,9.43
2023-03-21T08:03:26.628Z,9.00
2023-03-21T08:05:57.137Z,10.10
2023-03-21T08:08:25.513Z,10.53
2023-03-21T08:10:54.047Z,9.90
2023-03-21T08:13:23.080Z,9.47
2023-03-21T08:15:51.582Z,9.90
2023-03-21T08:18:20.073Z,10.63
2023-03-21T08:20:53.274Z,10.80
2023-03-21T08:23:23.806Z,10.98
2023-03-21T08:25:56.440Z,10.25
2023-03-21T08:28:25.838Z,10.40
2023-03-21T08:30:54.265Z,11.13
2023-03-21T08:33:23.227Z,10.27
2023-03-21T08:35:51.706Z,11.20
2023-03-21T08:38:20.778Z,10.55
2023-03-21T08:40:51.895Z,10.10
2023-03-21T08:43:20.410Z,9.63
2023-03-21T08:45:48.898Z,10.73
2023-03-21T08:48:17.295Z,11.20
2023-03-21T08:50:45.926Z,10.73
2023-03-21T08:53:14.476Z,10.88
2023-03-21T08:55:42.826Z,10.25
2023-03-21T08:58:12.618Z,10.63
2023-03-21T09:00:41.042Z,11.20
2023-03-21T09:03:11.689Z,10.90
2023-03-21T09:05:40.976Z,10.82
2023-03-21T09:08:09.576Z,10.85
2023-03-21T09:10:38.096Z,10.63
2023-03-21T09:13:06.594Z,9.98
2023-03-21T09:15:36.683Z,9.82
2023-03-21T09:18:15.194Z,11.10
2023-03-21T09:20:46.712Z,9.70
2023-03-21T09:23:16.446Z,10.85
2023-03-21T09:25:47.629Z,9.55
2023-03-21T09:28:16.561Z,10.05
2023-03-21T09:30:46.578Z,9.88
2023-03-21T09:33:19.252Z,9.82
2023-03-21T09:35:49.546Z,9.60
2023-03-21T09:38:19.474Z,9.77
2023-03-21T09:40:59.528Z,10.18
2023-03-21T09:43:42.693Z,10.25
2023-03-21T09:46:20.682Z,10.13
2023-03-21T09:48:58.190Z,10.70
2023-03-21T09:51:31.420Z,10.75
2023-03-21T09:54:03.942Z,10.35
2023-03-21T09:56:33.410Z,10.68
2023-03-21T09:59:03.260Z,10.80
2023-03-21T10:01:34.461Z,10.00
2023-03-21T10:04:06.716Z,10.57
2023-03-21T10:06:40.381Z,9.60
2023-03-21T10:09:16.325Z,10.05
2023-03-21T10:11:48.981Z,10.32
2023-03-21T10:14:20.983Z,9.65
2023-03-21T10:16:53.471Z,9.90
2023-03-21T10:19:23.435Z,9.70
2023-03-21T10:22:03.078Z,14.13
2023-03-21T10:24:34.904Z,11.93
2023-03-21T10:27:05.618Z,11.27
2023-03-21T10:29:38.768Z,10.45
2023-03-21T10:32:11.147Z,10.82
2023-03-21T10:34:43.558Z,10.68
2023-03-21T10:37:14.118Z,11.07
2023-03-21T10:39:44.295Z,10.38
2023-03-21T10:42:21.647Z,10.57
2023-03-21T10:44:52.534Z,9.73
2023-03-21T10:47:26.085Z,9.27
2023-03-21T10:50:11.134Z,9.77
2023-03-21T10:52:44.333Z,8.82
2023-03-21T10:55:22.783Z,10.13
2023-03-21T10:57:57.673Z,10.27
2023-03-21T11:00:30.097Z,10.35
2023-03-21T11:03:00.671Z,9.57
2023-03-21T11:05:37.034Z,8.60
2023-03-21T11:08:08.355Z,8.70
2023-03-21T11:10:38.997Z,10.20
2023-03-21T11:13:14.305Z,9.38
2023-03-21T11:15:50.433Z,42.47
2023-03-21T11:18:23.677Z,34.92
2023-03-21T11:20:55.201Z,16.52
2023-03-21T11:23:28.493Z,14.07
2023-03-21T11:25:58.384Z,10.85
2023-03-21T11:28:34.029Z,11.63
2023-03-21T11:31:04.710Z,24.27
2023-03-21T11:33:37.731Z,19.13
2023-03-21T11:36:09.170Z,12.85
2023-03-21T11:38:39.987Z,10.10
2023-03-21T11:41:09.277Z,9.32
2023-03-21T11:43:39.523Z,9.20
2023-03-21T11:46:10.111Z,8.80
2023-03-21T11:48:43.503Z,9.85
2023-03-21T11:51:24.340Z,54.58
2023-03-21T11:54:02.375Z,24.73
2023-03-21T11:56:33.761Z,13.43
2023-03-21T11:59:16.258Z,9.80
2023-03-21T12:01:59.314Z,9.57
2023-03-21T12:04:41.016Z,8.38
2023-03-21T12:07:28.641Z,8.40
2023-03-21T12:10:22.238Z,7.60
2023-03-21T12:12:57.415Z,8.80
2023-03-21T12:15:32.877Z,8.80
2023-03-21T12:18:11.707Z,8.48
2023-03-21T12:20:51.285Z,8.63
2023-03-21T12:23:37.380Z,8.52
2023-03-21T12:26:21.071Z,8.73
2023-03-21T12:29:05.114Z,8.63
2023-03-21T12:31:46.103Z,9.10
2023-03-21T12:34:29.771Z,9.10
2023-03-21T12:37:11.442Z,9.18
2023-03-21T12:39:41.878Z,9.70
2023-03-21T12:42:32.255Z,9.13
2023-03-21T12:45:15.401Z,9.57
2023-03-21T12:47:50.458Z,9.23
2023-03-21T12:50:23.520Z,9.43
2023-03-21T12:52:59.517Z,8.73
2023-03-21T12:55:31.874Z,9.40
2023-03-21T12:58:05.877Z,9.43
2023-03-21T13:00:40.318Z,8.43
2023-03-21T13:03:18.303Z,8.68
2023-03-21T13:05:51.188Z,9.23
2023-03-21T13:08:28.263Z,9.43
2023-03-21T13:11:00.082Z,8.80
2023-03-21T13:13:36.514Z,8.70
2023-03-21T13:16:12.185Z,9.30
2023-03-21T13:18:51.617Z,9.02
2023-03-21T13:21:26.939Z,8.77
2023-03-21T13:24:04.024Z,9.35
2023-03-21T13:26:40.675Z,9.73
2023-03-21T13:29:23.915Z,9.30
2023-03-21T13:31:57.381Z,9.10
2023-03-21T13:34:27.767Z,9.13
2023-03-21T13:36:58.200Z,9.10
2023-03-21T13:39:31.171Z,8.80
2023-03-21T13:42:05.946Z,9.10
2023-03-21T13:44:41.712Z,8.77
2023-03-21T13:47:31.943Z,8.27
2023-03-21T13:50:30.048Z,8.80
2023-03-21T13:53:32.349Z,9.13
2023-03-21T13:56:10.186Z,9.73
2023-03-21T13:58:40.398Z,10.17
2023-03-21T14:01:41.381Z,10.03
2023-03-21T14:04:16.091Z,9.93
2023-03-21T14:06:49.464Z,9.27
2023-03-21T14:09:23.531Z,9.70
2023-03-21T14:11:56.609Z,9.80
2023-03-21T14:14:34.935Z,9.10
2023-03-21T14:17:03.341Z,9.03
2023-03-21T14:19:33.975Z,9.80
2023-03-21T14:22:04.197Z,9.70
2023-03-21T14:24:33.534Z,9.90
2023-03-21T14:27:04.812Z,9.73
2023-03-21T14:29:35.371Z,9.43
2023-03-21T14:32:05.765Z,10.27
2023-03-21T14:34:37.197Z,8.98
2023-03-21T14:37:11.696Z,10.00
2023-03-21T14:39:40.111Z,9.73
2023-03-21T14:42:14.949Z,10.70
2023-03-21T14:44:56.919Z,10.43
2023-03-21T14:47:28.055Z,9.43
2023-03-21T14:49:58.435Z,9.32
2023-03-21T14:52:31.140Z,9.40
2023-03-21T14:55:01.179Z,9.07
2023-03-21T14:57:33.672Z,9.85
2023-03-21T15:00:12.659Z,9.40
2023-03-21T15:02:42.624Z,9.75
2023-03-21T15:05:15.925Z,9.15
2023-03-21T15:07:44.447Z,9.50
2023-03-21T15:10:18.545Z,9.55
2023-03-21T15:12:56.396Z,9.13
2023-03-21T15:15:27.575Z,9.35
2023-03-21T15:17:59.458Z,10.30
2023-03-21T15:20:33.087Z,9.77
2023-03-21T15:23:05.080Z,9.93
2023-03-21T15:25:37.494Z,9.80
2023-03-21T15:28:07.700Z,10.87
2023-03-21T15:30:36.527Z,10.43
2023-03-21T15:33:11.571Z,10.10
2023-03-21T15:35:43.085Z,10.43
2023-03-21T15:38:25.136Z,10.23
2023-03-21T15:41:13.975Z,10.13
2023-03-21T15:43:44.276Z,9.70
2023-03-21T15:46:17.914Z,9.67
2023-03-21T15:48:46.881Z,9.87
2023-03-21T15:51:23.738Z,9.70
2023-03-21T15:53:54.521Z,9.90
2023-03-21T15:56:23.783Z,9.47
2023-03-21T15:58:54.945Z,10.20
2023-03-21T16:01:26.585Z,10.50
2023-03-21T16:03:59.419Z,9.30
2023-03-21T16:06:33.963Z,10.00
2023-03-21T16:09:11.948Z,10.10
2023-03-21T16:11:41.854Z,9.50
2023-03-21T16:14:11.933Z,9.83
2023-03-21T16:16:40.841Z,9.63
2023-03-21T16:19:09.391Z,9.60
2023-03-21T16:21:38.843Z,10.03
2023-03-21T16:24:10.446Z,10.67
2023-03-21T16:26:45.920Z,9.23
2023-03-21T16:29:16.829Z,10.23
2023-03-21T16:31:47.988Z,10.50
2023-03-21T16:34:16.795Z,10.23
2023-03-21T16:36:45.208Z,9.67
2023-03-21T16:39:18.921Z,8.73
2023-03-21T16:41:48.031Z,9.07
2023-03-21T16:44:18.142Z,9.10
2023-03-21T16:46:47.247Z,9.63
2023-03-21T16:49:20.566Z,9.30
2023-03-21T16:51:48.994Z,8.80
2023-03-21T16:54:17.762Z,8.97
2023-03-21T16:56:48.735Z,9.27
2023-03-21T16:59:18.898Z,9.33
2023-03-21T17:01:48.900Z,8.70
2023-03-21T17:04:18.750Z,9.33
2023-03-21T17:06:49.453Z,9.40
2023-03-21T17:09:19.893Z,9.50
2023-03-21T17:11:49.364Z,9.43
2023-03-21T17:14:21.265Z,8.90
2023-03-21T17:16:49.864Z,8.70
2023-03-21T17:19:19.873Z,8.23
2023-03-21T17:21:48.540Z,8.90
2023-03-21T17:24:17.468Z,9.23
2023-03-21T17:26:46.251Z,10.90
2023-03-21T17:29:15.860Z,10.80
2023-03-21T17:31:48.271Z,10.43
2023-03-21T17:34:17.133Z,10.17
2023-03-21T17:36:47.489Z,12.10
2023-03-21T17:39:20.153Z,11.60
2023-03-21T17:41:48.604Z,12.17
2023-03-21T17:44:17.367Z,11.90
2023-03-21T17:46:50.201Z,12.03
2023-03-21T17:49:20.025Z,12.33
2023-03-21T17:51:48.442Z,12.07
2023-03-21T17:54:16.884Z,11.00
2023-03-21T17:56:45.329Z,11.53
2023-03-21T17:59:15.549Z,11.13
2023-03-21T18:01:44.128Z,10.90
2023-03-21T18:04:14.202Z,10.07
2023-03-21T18:06:42.569Z,10.70
2023-03-21T18:09:12.326Z,11.67
2023-03-21T18:11:42.023Z,11.17
2023-03-21T18:14:17.613Z,10.30
2023-03-21T18:16:47.758Z,10.63
2023-03-21T18:19:17.746Z,10.40
2023-03-21T18:21:46.630Z,10.30
2023-03-21T18:24:15.485Z,10.50
2023-03-21T18:26:45.922Z,10.10
2023-03-21T18:30:15.947Z,9.20
2023-03-21T18:32:07.729Z,10.13
2023-03-21T18:34:39.756Z,9.60
2023-03-21T18:37:10.902Z,8.90
2023-03-21T18:39:42.356Z,9.13
2023-03-21T18:42:17.250Z,9.70
2023-03-21T18:44:47.941Z,9.83
2023-03-21T18:47:17.383Z,9.37
2023-03-21T18:50:12.474Z,9.60
2023-03-21T18:52:36.277Z,9.80
2023-03-21T18:55:05.365Z,9.73
2023-03-21T18:57:37.541Z,8.40
2023-03-21T19:00:13.508Z,9.60
2023-03-21T19:02:47.004Z,8.60
2023-03-21T19:05:19.574Z,9.93
2023-03-21T19:07:49.265Z,10.20
2023-03-21T19:10:20.777Z,10.57
2023-03-21T19:12:50.037Z,10.20
2023-03-21T19:15:21.869Z,10.60
2023-03-21T19:18:37.218Z,10.30
2023-03-21T19:20:46.271Z,10.70
2023-03-21T19:23:17.001Z,10.00
2023-03-21T19:25:45.906Z,10.53
2023-03-21T19:28:14.287Z,10.43
2023-03-21T19:30:49.717Z,11.30
2023-03-21T19:33:20.101Z,10.80
2023-03-21T19:36:08.877Z,10.83
2023-03-21T19:38:39.433Z,10.80
2023-03-21T19:41:07.705Z,10.70
2023-03-21T19:43:36.755Z,9.93
2023-03-21T19:46:05.235Z,9.53
2023-03-21T19:48:33.849Z,8.27
2023-03-21T19:53:52.198Z,11.40
2023-03-21T19:56:24.436Z,9.70
2023-03-21T19:58:54.927Z,9.97
2023-03-21T20:01:24.279Z,13.63
2023-03-21T20:03:53.752Z,14.73
2023-03-21T20:06:24.106Z,13.30
2023-03-21T20:11:42.177Z,17.27
2023-03-21T20:14:10.622Z,25.17
2023-03-21T20:16:43.321Z,26.17
2023-03-21T20:19:16.352Z,20.90
2023-03-21T20:21:54.056Z,19.53
2023-03-21T20:24:25.150Z,17.17
2023-03-21T20:26:55.013Z,14.30
2023-03-21T20:32:12.414Z,12.40
2023-03-21T20:34:41.499Z,11.73
2023-03-21T20:37:12.589Z,12.40
2023-03-21T20:39:41.330Z,12.03
2023-03-21T20:42:09.678Z,10.70
2023-03-21T20:44:57.918Z,10.20
2023-03-21T20:47:26.577Z,10.00
2023-03-21T20:49:56.866Z,9.77
2023-03-21T20:52:54.812Z,9.50
2023-03-21T20:55:17.423Z,8.93
2023-03-21T20:57:48.614Z,9.00
2023-03-21T21:00:18.183Z,9.07
2023-03-21T21:02:48.784Z,9.07
2023-03-21T21:05:27.451Z,10.27
2023-03-21T21:07:59.030Z,9.63
2023-03-21T21:10:27.749Z,8.83
2023-03-21T21:12:57.054Z,8.73
2023-03-21T21:15:25.466Z,10.27
2023-03-21T21:18:06.543Z,9.37
2023-03-21T21:20:36.598Z,9.40
2023-03-21T21:23:06.629Z,8.80
2023-03-21T21:25:36.211Z,9.10
2023-03-21T21:28:09.197Z,9.77
2023-03-21T21:30:41.977Z,9.17
2023-03-21T21:33:10.706Z,10.17
2023-03-21T21:35:39.603Z,10.20
2023-03-21T21:38:09.400Z,11.80
2023-03-21T21:40:38.142Z,12.07
2023-03-21T21:43:06.894Z,12.63
2023-03-21T21:45:36.612Z,11.93
2023-03-21T21:48:05.292Z,12.07
2023-03-21T21:50:33.797Z,11.97
2023-03-21T21:53:03.994Z,10.87
2023-03-21T21:55:34.505Z,14.47
2023-03-21T21:58:04.017Z,14.50
2023-03-21T22:00:34.257Z,12.97
2023-03-21T22:03:03.364Z,13.93
2023-03-21T22:05:31.787Z,13.57
2023-03-21T22:08:00.177Z,13.93
2023-03-21T22:10:28.612Z,13.47
2023-03-21T22:12:58.316Z,13.00
2023-03-21T22:15:26.793Z,12.53
2023-03-21T22:17:55.132Z,13.40
2023-03-21T22:20:23.652Z,14.23
2023-03-21T22:22:52.244Z,14.23
2023-03-21T22:25:20.846Z,14.37
2023-03-21T22:27:49.267Z,14.53
2023-03-21T22:30:19.434Z,15.40
2023-03-21T22:33:02.565Z,20.23
2023-03-21T22:35:36.804Z,20.30
2023-03-21T22:38:05.278Z,18.77
2023-03-21T22:40:33.724Z,17.93
2023-03-21T22:43:02.167Z,16.47
2023-03-21T22:45:33.074Z,16.43
2023-03-21T22:48:01.432Z,14.77
2023-03-21T22:50:30.241Z,16.07
2023-03-21T22:52:58.636Z,15.63
2023-03-21T22:55:27.098Z,15.17
2023-03-21T22:57:55.836Z,16.83
2023-03-21T23:00:24.339Z,15.97
2023-03-21T23:02:54.420Z,15.87
2023-03-21T23:05:22.900Z,14.73
2023-03-21T23:07:51.221Z,13.97
2023-03-21T23:10:20.089Z,14.87
2023-03-21T23:12:48.666Z,15.60
2023-03-21T23:15:17.121Z,14.73
2023-03-21T23:17:45.709Z,14.67
2023-03-21T23:20:15.448Z,14.57
2023-03-21T23:22:43.859Z,16.80
2023-03-21T23:25:12.893Z,20.17
2023-03-21T23:27:41.286Z,17.73
2023-03-21T23:30:10.150Z,17.60
2023-03-21T23:32:38.718Z,17.17
2023-03-21T23:35:08.007Z,17.90
2023-03-21T23:37:37.837Z,19.50
2023-03-21T23:40:07.372Z,19.30
2023-03-21T23:42:36.394Z,19.20
2023-03-21T23:45:05.140Z,16.37
2023-03-21T23:47:33.469Z,16.33
2023-03-21T23:50:01.922Z,15.40
2023-03-21T23:52:30.306Z,17.00
2023-03-21T23:55:00.254Z,15.57
2023-03-21T23:57:28.618Z,16.80
2023-03-21T23:59:58.484Z,16.00
